createdAt,value
2022-08-17T00:00:05.780Z,93465.66
2022-08-17T00:01:05.596Z,93471.59
2022-08-17T00:02:04.962Z,93411.69
2022-08-17T00:03:10.300Z,93468.00
2022-08-17T00:04:11.643Z,93477.78
2022-08-17T00:05:08.738Z,93474.50
2022-08-17T00:06:27.442Z,93471.59
2022-08-17T00:07:24.033Z,93467.03
2022-08-17T00:08:25.806Z,93460.34
2022-08-17T00:09:22.420Z,93466.19
2022-08-17T00:10:19.338Z,93470.94
2022-08-17T00:11:21.379Z,93461.13
2022-08-17T00:12:42.663Z,93470.94
2022-08-17T00:13:38.913Z,93467.00
2022-08-17T00:14:36.193Z,93446.25
2022-08-17T00:15:32.928Z,93469.91
2022-08-17T00:16:55.368Z,93472.78
2022-08-17T00:17:52.317Z,93466.25
2022-08-17T00:19:05.710Z,93460.66
2022-08-17T00:20:06.144Z,93464.16
2022-08-17T00:21:10.434Z,93459.84
2022-08-17T00:22:33.253Z,93456.06
2022-08-17T00:23:25.430Z,93464.22
2022-08-17T00:24:22.130Z,93471.44
2022-08-17T00:25:20.148Z,93465.03
2022-08-17T00:26:43.701Z,93461.88
2022-08-17T00:27:36.949Z,93456.91
2022-08-17T00:28:33.615Z,93462.69
2022-08-17T00:29:30.209Z,93458.31
2022-08-17T00:30:26.937Z,93455.69
2022-08-17T00:31:24.551Z,93458.69
2022-08-17T00:33:23.254Z,93456.00
2022-08-17T00:33:40.260Z,93462.66
2022-08-17T00:34:36.915Z,93440.13
2022-08-17T00:35:34.376Z,93460.19
2022-08-17T00:36:31.052Z,93460.69
2022-08-17T00:37:28.029Z,93467.34
2022-08-17T00:38:25.965Z,93463.88
2022-08-17T00:39:22.641Z,93460.41
2022-08-17T00:40:20.235Z,93460.09
2022-08-17T00:41:20.521Z,93436.69
2022-08-17T00:42:19.323Z,93424.25
2022-08-17T00:43:20.601Z,93461.59
2022-08-17T00:44:17.268Z,93457.03
2022-08-17T00:45:15.916Z,93452.22
2022-08-17T00:46:22.356Z,93458.47
2022-08-17T00:47:19.004Z,93453.03
2022-08-17T00:48:29.471Z,93452.66
2022-08-17T00:49:27.366Z,93449.50
2022-08-17T00:50:24.223Z,93448.41
2022-08-17T00:51:39.224Z,93447.25
2022-08-17T00:52:42.519Z,93445.16
2022-08-17T00:53:43.526Z,93441.53
2022-08-17T00:54:43.642Z,93446.53
2022-08-17T00:55:40.619Z,93448.22
2022-08-17T00:56:43.146Z,93445.44
2022-08-17T00:57:42.738Z,93454.84
2022-08-17T00:58:40.197Z,93448.34
2022-08-17T00:59:41.348Z,93448.06
2022-08-17T01:00:43.250Z,93450.47
2022-08-17T01:01:40.688Z,93445.41
2022-08-17T01:02:43.230Z,93427.38
2022-08-17T01:03:40.709Z,93461.53
2022-08-17T01:04:37.788Z,93459.09
2022-08-17T01:05:38.808Z,93452.56
2022-08-17T01:06:41.529Z,93440.09
2022-08-17T01:07:38.800Z,93440.34
2022-08-17T01:08:36.544Z,93456.16
2022-08-17T01:09:34.123Z,93456.72
2022-08-17T01:10:58.556Z,93447.56
2022-08-17T01:11:54.339Z,93457.69
2022-08-17T01:12:51.667Z,93451.41
2022-08-17T01:13:48.630Z,93458.09
2022-08-17T01:14:45.287Z,93448.69
2022-08-17T01:15:48.442Z,93448.06
2022-08-17T01:16:45.449Z,93450.66
2022-08-17T01:17:43.299Z,93454.66
2022-08-17T01:18:40.090Z,93444.31
2022-08-17T01:19:39.554Z,93453.81
2022-08-17T01:20:46.670Z,93458.78
2022-08-17T01:22:11.337Z,93460.66
2022-08-17T01:23:07.982Z,93461.69
2022-08-17T01:24:05.185Z,93460.03
2022-08-17T01:25:04.719Z,93458.47
2022-08-17T01:26:03.147Z,93472.25
2022-08-17T01:27:00.570Z,93458.97
2022-08-17T01:27:57.247Z,93443.44
2022-08-17T01:28:55.901Z,93458.00
2022-08-17T01:29:58.766Z,93466.78
2022-08-17T01:30:58.778Z,93460.13
2022-08-17T01:32:00.131Z,93420.44
2022-08-17T01:32:56.811Z,93456.06
2022-08-17T01:33:53.587Z,93464.78
2022-08-17T01:34:51.014Z,93452.34
2022-08-17T01:35:47.717Z,93459.56
2022-08-17T01:36:47.065Z,93455.63
2022-08-17T01:37:43.781Z,93466.16
2022-08-17T01:38:40.540Z,93451.38
2022-08-17T01:39:51.586Z,93462.72
2022-08-17T01:40:58.028Z,93464.91
2022-08-17T01:42:04.616Z,93469.78
2022-08-17T01:43:31.695Z,93465.59
2022-08-17T01:44:28.421Z,93457.09
2022-08-17T01:45:28.399Z,93458.31
2022-08-17T01:46:29.404Z,93446.44
2022-08-17T01:47:26.139Z,93425.47
2022-08-17T01:48:24.237Z,93443.97
2022-08-17T01:49:20.984Z,93458.47
2022-08-17T01:50:23.993Z,93454.16
2022-08-17T01:51:21.301Z,93457.91
2022-08-17T01:52:18.279Z,93459.16
2022-08-17T01:53:39.757Z,93455.44
2022-08-17T01:54:39.893Z,93459.00
2022-08-17T01:56:01.359Z,93452.56
2022-08-17T01:56:58.056Z,93453.59
2022-08-17T01:57:54.851Z,93457.31
2022-08-17T01:58:52.677Z,93426.81
2022-08-17T01:59:49.545Z,93456.28
2022-08-17T02:01:00.962Z,93424.50
2022-08-17T02:01:58.472Z,93454.19
2022-08-17T02:02:55.472Z,93454.38
2022-08-17T02:03:59.601Z,93457.31
2022-08-17T02:04:58.848Z,93454.84
2022-08-17T02:05:55.941Z,93456.69
2022-08-17T02:06:54.437Z,93447.72
2022-08-17T02:08:00.251Z,93455.81
2022-08-17T02:09:03.006Z,93443.13
2022-08-17T02:10:00.425Z,93455.03
2022-08-17T02:10:57.137Z,93453.59
2022-08-17T02:11:56.390Z,93452.72
2022-08-17T02:12:53.503Z,93445.22
2022-08-17T02:13:55.129Z,93455.78
2022-08-17T02:14:59.680Z,93455.13
2022-08-17T02:15:57.546Z,93456.84
2022-08-17T02:16:54.238Z,93461.88
2022-08-17T02:17:54.835Z,93437.41
2022-08-17T02:18:51.659Z,93452.75
2022-08-17T02:19:48.440Z,93455.88
2022-08-17T02:20:45.040Z,93454.03
2022-08-17T02:21:44.268Z,93444.88
2022-08-17T02:22:44.356Z,93442.97
2022-08-17T02:23:44.899Z,93466.09
2022-08-17T02:24:58.600Z,93457.56
2022-08-17T02:26:00.392Z,93476.25
2022-08-17T02:26:57.105Z,93467.72
2022-08-17T02:27:53.759Z,93463.38
2022-08-17T02:28:50.971Z,93461.09
2022-08-17T02:29:48.198Z,93468.16
2022-08-17T02:30:59.148Z,93467.50
2022-08-17T02:31:58.626Z,93464.81
2022-08-17T02:32:56.171Z,93474.41
2022-08-17T02:33:56.908Z,93472.53
2022-08-17T02:35:02.201Z,93483.53
2022-08-17T02:35:58.930Z,93481.81
2022-08-17T02:36:55.678Z,93484.56
2022-08-17T02:37:55.683Z,93478.16
2022-08-17T02:38:52.596Z,93457.34
2022-08-17T02:39:49.267Z,93483.13
2022-08-17T02:40:46.062Z,93479.38
2022-08-17T02:41:44.613Z,93481.66
2022-08-17T02:42:43.599Z,93471.91
2022-08-17T02:43:40.337Z,93490.34
2022-08-17T02:44:39.827Z,93488.88
2022-08-17T02:45:37.098Z,93454.81
2022-08-17T02:46:34.233Z,93489.34
2022-08-17T02:47:31.355Z,93449.81
2022-08-17T02:48:30.701Z,93488.06
2022-08-17T02:49:28.548Z,93483.47
2022-08-17T02:50:26.213Z,93484.72
2022-08-17T02:51:23.289Z,93468.88
2022-08-17T02:52:42.848Z,93490.28
2022-08-17T02:53:36.483Z,93488.88
2022-08-17T02:54:40.152Z,93486.59
2022-08-17T02:55:41.352Z,93491.38
2022-08-17T02:56:38.030Z,93484.94
2022-08-17T02:57:35.089Z,93488.47
2022-08-17T02:58:35.181Z,93486.44
2022-08-17T02:59:32.527Z,93484.13
2022-08-17T03:00:36.409Z,93490.94
2022-08-17T03:01:33.205Z,93486.44
2022-08-17T03:02:29.987Z,93473.16
2022-08-17T03:03:26.942Z,93489.13
2022-08-17T03:04:23.789Z,93492.19
2022-08-17T03:05:23.754Z,93497.16
2022-08-17T03:06:20.474Z,93488.63
2022-08-17T03:07:17.283Z,93497.53
2022-08-17T03:08:13.952Z,93496.31
2022-08-17T03:09:10.598Z,93498.81
2022-08-17T03:10:08.823Z,93486.19
2022-08-17T03:11:05.544Z,93498.44
2022-08-17T03:12:07.236Z,93493.59
2022-08-17T03:13:04.107Z,93492.13
2022-08-17T03:14:00.835Z,93496.09
2022-08-17T03:14:57.456Z,93500.91
2022-08-17T03:15:54.086Z,93458.06
2022-08-17T03:16:51.125Z,93490.81
2022-08-17T03:17:48.485Z,93496.44
2022-08-17T03:18:45.111Z,93489.97
2022-08-17T03:19:43.142Z,93498.44
2022-08-17T03:20:41.157Z,93480.97
2022-08-17T03:21:37.785Z,93501.75
2022-08-17T03:22:43.276Z,93500.78
2022-08-17T03:23:44.735Z,93498.06
2022-08-17T03:24:41.894Z,93498.22
2022-08-17T03:25:43.383Z,93506.34
2022-08-17T03:26:40.889Z,93509.25
2022-08-17T03:27:38.237Z,93511.31
2022-08-17T03:28:39.406Z,93504.06
2022-08-17T03:29:36.035Z,93480.94
2022-08-17T03:30:33.771Z,93516.28
2022-08-17T03:31:31.480Z,93500.31
2022-08-17T03:32:28.151Z,93507.38
2022-08-17T03:33:25.019Z,93507.56
2022-08-17T03:34:21.738Z,93479.91
2022-08-17T03:35:21.009Z,93507.16
2022-08-17T03:36:17.694Z,93504.66
2022-08-17T03:37:14.862Z,93504.03
2022-08-17T03:38:15.129Z,93507.44
2022-08-17T03:39:12.064Z,93505.78
2022-08-17T03:40:10.238Z,93498.94
2022-08-17T03:41:07.272Z,93501.41
2022-08-17T03:42:31.508Z,93505.34
2022-08-17T03:43:31.772Z,93509.09
2022-08-17T03:44:28.447Z,93510.53
2022-08-17T03:45:44.198Z,93509.94
2022-08-17T03:46:59.453Z,93504.34
2022-08-17T03:48:14.630Z,93507.66
2022-08-17T03:49:30.118Z,93510.56
2022-08-17T03:50:45.517Z,93504.53
2022-08-17T03:52:01.196Z,93504.31
2022-08-17T03:53:16.287Z,93515.56
2022-08-17T03:54:31.588Z,93523.25
2022-08-17T03:55:46.841Z,93520.97
2022-08-17T03:56:46.946Z,93525.13
2022-08-17T03:57:43.545Z,93525.72
2022-08-17T03:58:40.214Z,93520.94
2022-08-17T03:59:37.696Z,93502.16
2022-08-17T04:00:36.270Z,93517.16
2022-08-17T04:01:36.397Z,93505.47
2022-08-17T04:02:34.171Z,93522.13
2022-08-17T04:03:30.953Z,93525.03
2022-08-17T04:04:28.085Z,93528.75
2022-08-17T04:05:24.776Z,93497.75
2022-08-17T04:06:21.383Z,93525.81
2022-08-17T04:07:20.335Z,93526.28
2022-08-17T04:08:16.992Z,93507.16
2022-08-17T04:09:14.349Z,93525.09
2022-08-17T04:10:11.106Z,93531.34
2022-08-17T04:11:07.816Z,93531.13
2022-08-17T04:12:05.407Z,93528.03
2022-08-17T04:13:02.226Z,93526.38
2022-08-17T04:13:58.936Z,93530.53
2022-08-17T04:14:55.570Z,93527.41
2022-08-17T04:15:52.261Z,93523.44
2022-08-17T04:16:48.875Z,93529.09
2022-08-17T04:17:45.883Z,93528.88
2022-08-17T04:18:42.506Z,93516.78
2022-08-17T04:19:39.155Z,93511.81
2022-08-17T04:20:35.760Z,93508.06
2022-08-17T04:21:32.782Z,93519.47
2022-08-17T04:22:32.344Z,93520.09
2022-08-17T04:23:33.765Z,93522.22
2022-08-17T04:24:30.701Z,93523.03
2022-08-17T04:25:28.776Z,93521.13
2022-08-17T04:26:52.217Z,93525.09
2022-08-17T04:27:42.269Z,93525.09
2022-08-17T04:28:38.921Z,93525.28
2022-08-17T04:29:54.430Z,93530.06
2022-08-17T04:30:52.007Z,93519.88
2022-08-17T04:31:48.670Z,93526.66
2022-08-17T04:33:06.185Z,93531.94
2022-08-17T04:34:03.404Z,93523.97
2022-08-17T04:35:00.912Z,93533.22
2022-08-17T04:36:00.683Z,93538.91
2022-08-17T04:36:57.338Z,93534.44
2022-08-17T04:37:54.486Z,93536.97
2022-08-17T04:38:51.238Z,93544.09
2022-08-17T04:40:07.940Z,93537.03
2022-08-17T04:41:24.061Z,93543.16
2022-08-17T04:42:20.673Z,93545.66
2022-08-17T04:43:20.460Z,93544.19
2022-08-17T04:44:28.320Z,93537.53
2022-08-17T04:45:34.517Z,93546.03
2022-08-17T04:46:36.321Z,93542.44
2022-08-17T04:47:32.972Z,93543.84
2022-08-17T04:48:36.605Z,93543.19
2022-08-17T04:49:35.116Z,93539.44
2022-08-17T04:50:34.472Z,93531.94
2022-08-17T04:51:54.490Z,93549.78
2022-08-17T04:52:53.495Z,93544.94
2022-08-17T04:53:54.974Z,93543.03
2022-08-17T04:54:51.754Z,93546.78
2022-08-17T04:55:48.809Z,93544.69
2022-08-17T04:56:45.942Z,93547.78
2022-08-17T04:57:45.068Z,93547.56
2022-08-17T04:58:43.528Z,93528.91
2022-08-17T04:59:40.123Z,93551.22
2022-08-17T05:00:38.227Z,93536.47
2022-08-17T05:01:37.185Z,93540.56
2022-08-17T05:02:33.843Z,93547.81
2022-08-17T05:03:31.268Z,93555.03
2022-08-17T05:04:34.061Z,93549.00
2022-08-17T05:05:36.318Z,93556.47
2022-08-17T05:06:33.436Z,93548.97
2022-08-17T05:07:31.685Z,93548.19
2022-08-17T05:08:28.545Z,93551.06
2022-08-17T05:09:25.236Z,93547.56
2022-08-17T05:10:26.896Z,93547.50
2022-08-17T05:11:26.041Z,93547.50
2022-08-17T05:12:22.649Z,93551.09
2022-08-17T05:13:23.101Z,93549.00
2022-08-17T05:14:19.772Z,93552.28
2022-08-17T05:15:16.408Z,93550.38
2022-08-17T05:16:13.181Z,93551.00
2022-08-17T05:17:11.170Z,93544.28
2022-08-17T05:18:08.973Z,93517.50
2022-08-17T05:19:05.639Z,93543.75
2022-08-17T05:20:02.392Z,93552.50
2022-08-17T05:20:59.000Z,93548.50
2022-08-17T05:21:55.614Z,93550.94
2022-08-17T05:22:54.696Z,93547.41
2022-08-17T05:23:56.330Z,93544.38
2022-08-17T05:24:55.649Z,93550.81
2022-08-17T05:25:55.459Z,93550.81
2022-08-17T05:26:52.108Z,93476.69
2022-08-17T05:27:49.015Z,93549.91
2022-08-17T05:28:46.040Z,93550.84
2022-08-17T05:29:42.686Z,93557.63
2022-08-17T05:30:42.058Z,93551.97
2022-08-17T05:31:38.665Z,93559.44
2022-08-17T05:32:38.838Z,93558.34
2022-08-17T05:33:42.670Z,93554.72
2022-08-17T05:34:41.102Z,93557.44
2022-08-17T05:35:42.669Z,93554.53
2022-08-17T05:36:44.128Z,93557.38
2022-08-17T05:37:41.084Z,93564.78
2022-08-17T05:38:38.044Z,93562.72
2022-08-17T05:39:34.733Z,93562.59
2022-08-17T05:40:32.833Z,93560.75
2022-08-17T05:41:29.938Z,93560.34
2022-08-17T05:42:26.617Z,93562.50
2022-08-17T05:43:29.888Z,93567.13
2022-08-17T05:44:26.524Z,93559.66
2022-08-17T05:45:39.960Z,93561.25
2022-08-17T05:46:43.662Z,93563.59
2022-08-17T05:47:40.488Z,93566.13
2022-08-17T05:48:40.576Z,93557.19
2022-08-17T05:49:37.238Z,93560.78
2022-08-17T05:50:42.021Z,93562.44
2022-08-17T05:52:02.199Z,93557.34
2022-08-17T05:53:20.882Z,93559.75
2022-08-17T05:54:26.450Z,93564.13
2022-08-17T05:55:41.410Z,93561.78
2022-08-17T05:56:41.040Z,93568.81
2022-08-17T05:57:54.230Z,93555.00
2022-08-17T05:59:03.323Z,93551.47
2022-08-17T06:00:15.025Z,93561.16
2022-08-17T06:01:38.511Z,93563.44
2022-08-17T06:03:00.112Z,93560.16
2022-08-17T06:04:21.411Z,93555.31
2022-08-17T06:05:18.141Z,93553.41
2022-08-17T06:06:36.364Z,93555.50
2022-08-17T06:07:49.778Z,93551.16
2022-08-17T06:09:14.071Z,93556.63
2022-08-17T06:10:31.890Z,93550.91
2022-08-17T06:11:58.815Z,93551.50
2022-08-17T06:13:45.113Z,93554.00
2022-08-17T06:15:01.509Z,93552.88
2022-08-17T06:16:31.160Z,93551.72
2022-08-17T06:17:31.632Z,93557.06
2022-08-17T06:18:36.383Z,93551.84
2022-08-17T06:19:42.256Z,93556.19
2022-08-17T06:20:54.327Z,93551.25
2022-08-17T06:21:54.894Z,93551.97
2022-08-17T06:22:58.884Z,93552.56
2022-08-17T06:24:08.265Z,93557.66
2022-08-17T06:25:19.128Z,93547.00
2022-08-17T06:26:25.903Z,93530.16
2022-08-17T06:27:46.384Z,93546.28
2022-08-17T06:29:18.546Z,93551.50
2022-08-17T06:30:26.191Z,93549.09
2022-08-17T06:31:29.314Z,93555.56
2022-08-17T06:32:26.252Z,93553.41
2022-08-17T06:33:36.036Z,93549.69
2022-08-17T06:34:33.980Z,93538.66
2022-08-17T06:35:46.119Z,93547.16
2022-08-17T06:37:11.236Z,93548.41
2022-08-17T06:38:07.790Z,93554.28
2022-08-17T06:39:10.437Z,93553.50
2022-08-17T06:40:38.094Z,93556.88
2022-08-17T06:41:38.143Z,93553.31
2022-08-17T06:43:02.424Z,93547.66
2022-08-17T06:44:42.320Z,93550.66
2022-08-17T06:45:52.980Z,93557.91
2022-08-17T06:46:58.269Z,93545.03
2022-08-17T06:48:04.043Z,93549.81
2022-08-17T06:49:12.579Z,93551.16
2022-08-17T06:50:15.463Z,93528.09
2022-08-17T06:51:24.506Z,93550.31
2022-08-17T06:52:46.026Z,93552.44
2022-08-17T06:53:47.716Z,93545.28
2022-08-17T06:54:50.379Z,93547.97
2022-08-17T06:56:00.321Z,93544.03
2022-08-17T06:57:18.616Z,93551.47
2022-08-17T06:58:21.140Z,93546.38
2022-08-17T06:59:25.338Z,93512.09
2022-08-17T07:00:26.748Z,93541.56
2022-08-17T07:01:31.700Z,93552.06
2022-08-17T07:02:54.347Z,93545.25
2022-08-17T07:04:00.212Z,93547.50
2022-08-17T07:05:02.555Z,93547.94
2022-08-17T07:06:08.353Z,93547.34
2022-08-17T07:07:27.585Z,93543.66
2022-08-17T07:08:51.220Z,93545.81
2022-08-17T07:09:48.071Z,93552.50
2022-08-17T07:10:55.898Z,93548.53
2022-08-17T07:12:11.267Z,93532.53
2022-08-17T07:13:20.619Z,93541.25
2022-08-17T07:14:38.671Z,93546.69
2022-08-17T07:15:42.994Z,93555.56
2022-08-17T07:16:48.944Z,93552.81
2022-08-17T07:17:49.074Z,93557.38
2022-08-17T07:18:46.638Z,93553.84
2022-08-17T07:19:47.567Z,93544.69
2022-08-17T07:20:51.356Z,93540.38
2022-08-17T07:22:03.846Z,93552.78
2022-08-17T07:23:26.848Z,93545.72
2022-08-17T07:24:57.321Z,93552.25
2022-08-17T07:26:04.356Z,93550.88
2022-08-17T07:27:22.930Z,93540.94
2022-08-17T07:28:23.043Z,93549.28
2022-08-17T07:29:20.056Z,93552.09
2022-08-17T07:30:19.406Z,93553.56
2022-08-17T07:31:17.608Z,93547.38
2022-08-17T07:32:20.224Z,93547.50
2022-08-17T07:33:29.135Z,93540.28
2022-08-17T07:34:25.903Z,93544.53
2022-08-17T07:35:37.680Z,93547.03
2022-08-17T07:36:34.862Z,93548.06
2022-08-17T07:37:33.751Z,93548.50
2022-08-17T07:38:35.696Z,93549.47
2022-08-17T07:39:32.711Z,93537.84
2022-08-17T07:40:35.242Z,93551.75
2022-08-17T07:41:57.863Z,93546.69
2022-08-17T07:43:05.077Z,93547.91
2022-08-17T07:44:02.023Z,93550.09
2022-08-17T07:45:18.698Z,93556.72
2022-08-17T07:47:06.570Z,93543.94
2022-08-17T07:48:19.508Z,93529.25
2022-08-17T07:49:21.348Z,93546.09
2022-08-17T07:50:29.416Z,93535.75
2022-08-17T07:51:30.295Z,93519.19
2022-08-17T07:52:51.458Z,93534.25
2022-08-17T07:53:49.476Z,93537.13
2022-08-17T07:54:46.123Z,93542.06
2022-08-17T07:55:43.106Z,93544.16
2022-08-17T07:56:42.744Z,93539.03
2022-08-17T07:57:40.379Z,93544.34
2022-08-17T07:58:37.155Z,93503.84
2022-08-17T07:59:36.651Z,93521.00
2022-08-17T08:00:33.856Z,93549.00
2022-08-17T08:01:39.549Z,93540.59
2022-08-17T08:02:42.400Z,93518.31
2022-08-17T08:03:44.675Z,93543.16
2022-08-17T08:05:08.770Z,93517.78
2022-08-17T08:06:21.716Z,93543.00
2022-08-17T08:07:20.578Z,93538.72
2022-08-17T08:08:28.269Z,93540.72
2022-08-17T08:10:02.415Z,93543.28
2022-08-17T08:11:03.332Z,93543.91
2022-08-17T08:12:20.559Z,93541.31
2022-08-17T08:13:23.357Z,93541.41
2022-08-17T08:14:29.638Z,93538.03
2022-08-17T08:15:54.240Z,93533.22
2022-08-17T08:17:05.263Z,93540.22
2022-08-17T08:18:06.023Z,93542.09
2022-08-17T08:19:02.921Z,93510.09
2022-08-17T08:20:00.759Z,93522.94
2022-08-17T08:21:36.149Z,93529.38
2022-08-17T08:22:43.468Z,93533.03
2022-08-17T08:24:04.151Z,93531.47
2022-08-17T08:25:00.746Z,93537.00
2022-08-17T08:26:00.479Z,93526.94
2022-08-17T08:27:08.424Z,93529.97
2022-08-17T08:28:21.679Z,93526.59
2022-08-17T08:29:43.162Z,93519.03
2022-08-17T08:30:47.860Z,93532.72
2022-08-17T08:32:22.000Z,93528.38
2022-08-17T08:33:44.621Z,93522.81
2022-08-17T08:35:01.256Z,93522.34
2022-08-17T08:36:03.420Z,93523.63
2022-08-17T08:37:20.645Z,93521.47
2022-08-17T08:38:34.578Z,93500.91
2022-08-17T08:39:47.317Z,93530.09
2022-08-17T08:40:52.782Z,93523.22
2022-08-17T08:42:01.374Z,93513.84
2022-08-17T08:43:19.578Z,93516.59
2022-08-17T08:45:00.028Z,93524.28
2022-08-17T08:46:19.657Z,93527.63
2022-08-17T08:47:42.518Z,93525.91
2022-08-17T08:48:58.179Z,93519.91
2022-08-17T08:50:36.989Z,93514.66
2022-08-17T08:51:47.181Z,93518.50
2022-08-17T08:53:16.123Z,93515.78
2022-08-17T08:54:40.544Z,93516.03
2022-08-17T08:55:45.908Z,93509.47
2022-08-17T08:57:34.161Z,93513.59
2022-08-17T08:59:03.214Z,93507.78
2022-08-17T09:00:24.851Z,93500.09
2022-08-17T09:01:26.302Z,93508.00
2022-08-17T09:03:07.429Z,93508.03
2022-08-17T09:04:23.714Z,93502.66
2022-08-17T09:06:00.216Z,93514.25
2022-08-17T09:07:02.846Z,93506.19
2022-08-17T09:08:17.635Z,93513.00
2022-08-17T09:09:19.973Z,93509.88
2022-08-17T09:10:26.812Z,93515.16
2022-08-17T09:12:02.183Z,93499.97
2022-08-17T09:13:09.517Z,93504.41
2022-08-17T09:14:28.203Z,93500.25
2022-08-17T09:15:41.594Z,93508.34
2022-08-17T09:16:44.654Z,93500.13
2022-08-17T09:19:00.840Z,93502.81
2022-08-17T09:20:03.962Z,93497.41
2022-08-17T09:21:18.093Z,93498.59
2022-08-17T09:22:33.110Z,93490.69
2022-08-17T09:23:42.475Z,93491.66
2022-08-17T09:24:57.354Z,93479.06
2022-08-17T09:26:23.017Z,93492.09
2022-08-17T09:27:30.590Z,93488.38
2022-08-17T09:28:40.386Z,93480.22
2022-08-17T09:29:41.334Z,93499.72
2022-08-17T09:30:50.694Z,93494.59
2022-08-17T09:32:01.636Z,93496.53
2022-08-17T09:33:02.289Z,93485.19
2022-08-17T09:34:02.177Z,93484.34
2022-08-17T09:35:05.756Z,93498.06
2022-08-17T09:36:13.516Z,93485.75
2022-08-17T09:37:23.657Z,93491.22
2022-08-17T09:38:39.485Z,93492.88
2022-08-17T09:39:43.358Z,93490.34
2022-08-17T09:40:46.653Z,93485.44
2022-08-17T09:41:51.996Z,93445.50
2022-08-17T09:42:53.562Z,93490.72
2022-08-17T09:44:02.511Z,93482.44
2022-08-17T09:45:15.873Z,93482.19
2022-08-17T09:46:22.163Z,93488.03
2022-08-17T09:47:34.691Z,93485.94
2022-08-17T09:48:58.341Z,93483.56
2022-08-17T09:51:04.456Z,93485.88
2022-08-17T09:52:27.176Z,93482.78
2022-08-17T09:53:23.980Z,93488.78
2022-08-17T09:54:39.059Z,93489.78
2022-08-17T09:55:51.708Z,93486.75
2022-08-17T09:57:11.499Z,93481.97
2022-08-17T09:58:23.029Z,93488.09
2022-08-17T09:59:52.125Z,93482.66
2022-08-17T10:00:57.689Z,93476.72
2022-08-17T10:02:32.184Z,93478.13
2022-08-17T10:03:50.811Z,93472.03
2022-08-17T10:05:09.770Z,93475.84
2022-08-17T10:06:13.283Z,93472.31
2022-08-17T10:07:36.803Z,93471.00
2022-08-17T10:08:57.321Z,93468.97
2022-08-17T10:10:19.777Z,93480.22
2022-08-17T10:12:00.990Z,93467.34
2022-08-17T10:13:36.089Z,93475.84
2022-08-17T10:14:44.134Z,93466.09
2022-08-17T10:15:55.404Z,93466.22
2022-08-17T10:17:00.684Z,93464.97
2022-08-17T10:18:22.197Z,93471.81
2022-08-17T10:19:33.743Z,93471.84
2022-08-17T10:20:37.165Z,93476.25
2022-08-17T10:22:01.238Z,93474.19
2022-08-17T10:23:56.105Z,93467.69
2022-08-17T10:25:23.858Z,93467.41
2022-08-17T10:26:25.324Z,93471.38
2022-08-17T10:27:26.395Z,93474.16
2022-08-17T10:28:30.428Z,93481.31
2022-08-17T10:29:48.910Z,93484.31
2022-08-17T10:31:16.754Z,93479.84
2022-08-17T10:32:32.198Z,93488.81
2022-08-17T10:34:10.343Z,93484.31
2022-08-17T10:35:09.937Z,93490.47
2022-08-17T10:36:14.755Z,93462.16
2022-08-17T10:37:35.242Z,93492.69
2022-08-17T10:38:37.283Z,93491.91
2022-08-17T10:40:15.600Z,93491.19
2022-08-17T10:41:40.169Z,93491.63
2022-08-17T10:42:47.097Z,93475.34
2022-08-17T10:43:57.834Z,93502.25
2022-08-17T10:45:14.546Z,93500.59
2022-08-17T10:46:31.410Z,93466.41
2022-08-17T10:48:06.628Z,93509.69
2022-08-17T10:49:19.171Z,93502.94
2022-08-17T10:50:46.174Z,93501.88
2022-08-17T10:52:04.115Z,93505.38
2022-08-17T10:53:01.857Z,93503.56
2022-08-17T10:54:01.454Z,93501.25
2022-08-17T10:55:11.183Z,93500.16
2022-08-17T10:56:14.159Z,93487.38
2022-08-17T10:57:29.681Z,93487.34
2022-08-17T10:58:38.361Z,93486.38
2022-08-17T10:59:34.924Z,93485.78
2022-08-17T11:00:44.011Z,93496.56
2022-08-17T11:01:43.517Z,93495.13
2022-08-17T11:02:57.246Z,93493.66
2022-08-17T11:04:05.017Z,93505.53
2022-08-17T11:06:01.276Z,93496.06
2022-08-17T11:07:16.075Z,93493.59
2022-08-17T11:08:27.947Z,93489.81
2022-08-17T11:09:43.049Z,93473.91
2022-08-17T11:10:52.310Z,93484.66
2022-08-17T11:12:12.016Z,93483.50
2022-08-17T11:13:21.812Z,93485.38
2022-08-17T11:14:44.205Z,93473.94
2022-08-17T11:15:59.411Z,93486.13
2022-08-17T11:17:21.776Z,93488.56
2022-08-17T11:18:34.112Z,93477.06
2022-08-17T11:20:09.623Z,93491.44
2022-08-17T11:21:18.265Z,93479.94
2022-08-17T11:22:33.394Z,93476.16
2022-08-17T11:24:08.813Z,93486.84
2022-08-17T11:25:33.977Z,93482.75
2022-08-17T11:26:33.589Z,93482.50
2022-08-17T11:27:34.085Z,93443.97
2022-08-17T11:28:46.164Z,93486.03
2022-08-17T11:29:53.545Z,93484.97
2022-08-17T11:30:59.151Z,93472.31
2022-08-17T11:32:02.390Z,93476.16
2022-08-17T11:32:59.658Z,93488.56
2022-08-17T11:34:03.549Z,93501.16
2022-08-17T11:35:22.142Z,93501.88
2022-08-17T11:36:31.437Z,93499.75
2022-08-17T11:37:41.746Z,93503.84
2022-08-17T11:38:46.759Z,93496.13
2022-08-17T11:40:05.225Z,93507.31
2022-08-17T11:41:01.855Z,93505.94
2022-08-17T11:42:11.998Z,93496.66
2022-08-17T11:43:45.810Z,93506.31
2022-08-17T11:45:31.574Z,93504.28
2022-08-17T11:47:19.025Z,93501.88
2022-08-17T11:48:38.907Z,93514.69
2022-08-17T11:50:27.915Z,93515.72
2022-08-17T11:52:01.198Z,93509.16
2022-08-17T11:52:58.049Z,93501.19
2022-08-17T11:54:14.735Z,93508.34
2022-08-17T11:55:40.573Z,93506.72
2022-08-17T11:56:47.178Z,93507.84
2022-08-17T11:57:46.128Z,93504.31
2022-08-17T11:58:45.977Z,93495.16
2022-08-17T11:59:43.890Z,93504.69
2022-08-17T12:00:49.692Z,93472.94
2022-08-17T12:01:56.775Z,93476.44
2022-08-17T12:03:22.467Z,93504.53
2022-08-17T12:04:36.193Z,93503.66
2022-08-17T12:05:34.647Z,93504.78
2022-08-17T12:06:56.965Z,93502.28
2022-08-17T12:08:05.923Z,93508.06
2022-08-17T12:09:12.007Z,93502.69
2022-08-17T12:10:12.243Z,93474.38
2022-08-17T12:12:11.317Z,93498.38
2022-08-17T12:12:44.227Z,93496.69
2022-08-17T12:13:49.223Z,93493.06
2022-08-17T12:15:11.553Z,93492.16
2022-08-17T12:16:13.616Z,93494.09
2022-08-17T12:17:14.209Z,93495.94
2022-08-17T12:18:32.278Z,93493.00
2022-08-17T12:19:29.771Z,93486.88
2022-08-17T12:20:37.598Z,93498.28
2022-08-17T12:21:41.696Z,93493.38
2022-08-17T12:23:04.150Z,93494.09
2022-08-17T12:24:44.788Z,93494.44
2022-08-17T12:25:49.701Z,93488.00
2022-08-17T12:27:01.853Z,93483.13
2022-08-17T12:28:04.853Z,93466.13
2022-08-17T12:29:18.132Z,93488.16
2022-08-17T12:30:29.995Z,93483.28
2022-08-17T12:31:31.241Z,93489.88
2022-08-17T12:32:33.858Z,93482.13
2022-08-17T12:33:30.960Z,93477.41
2022-08-17T12:34:40.030Z,93477.44
2022-08-17T12:35:39.024Z,93470.81
2022-08-17T12:36:35.728Z,93473.94
2022-08-17T12:37:35.409Z,93484.06
2022-08-17T12:38:37.963Z,93477.34
2022-08-17T12:39:34.998Z,93481.75
2022-08-17T12:40:32.670Z,93480.00
2022-08-17T12:41:40.823Z,93475.53
2022-08-17T12:42:42.108Z,93479.66
2022-08-17T12:43:38.807Z,93475.19
2022-08-17T12:44:46.188Z,93477.34
2022-08-17T12:45:57.117Z,93471.59
2022-08-17T12:47:01.821Z,93468.09
2022-08-17T12:48:07.926Z,93466.28
2022-08-17T12:49:26.559Z,93467.06
2022-08-17T12:50:29.798Z,93467.63
2022-08-17T12:51:29.190Z,93468.75
2022-08-17T12:52:29.143Z,93470.88
2022-08-17T12:53:30.679Z,93463.00
2022-08-17T12:54:42.420Z,93435.16
2022-08-17T12:55:40.530Z,93468.06
2022-08-17T12:56:37.335Z,93470.56
2022-08-17T12:57:41.914Z,93456.06
2022-08-17T12:58:48.584Z,93459.91